createdAt,value
2023-05-13T00:02:56.364Z,6.30
2023-05-13T00:06:00.749Z,7.10
2023-05-13T00:08:37.688Z,4.80
2023-05-13T00:11:13.405Z,5.20
2023-05-13T00:13:57.668Z,6.70
2023-05-13T00:17:00.149Z,5.60
2023-05-13T00:19:48.065Z,4.50
2023-05-13T00:22:41.788Z,4.90
2023-05-13T00:25:49.137Z,5.70
2023-05-13T00:28:50.678Z,4.20
2023-05-13T00:32:04.912Z,5.50
2023-05-13T00:37:45.417Z,4.50
2023-05-13T00:40:48.019Z,4.40
2023-05-13T00:43:32.813Z,4.70
2023-05-13T00:46:09.400Z,5.30
2023-05-13T00:48:55.782Z,7.50
2023-05-13T00:52:04.190Z,5.60
2023-05-13T00:56:07.462Z,5.70
2023-05-13T00:59:34.520Z,5.00
2023-05-13T01:03:03.227Z,5.20
2023-05-13T01:14:34.024Z,5.10
2023-05-13T01:17:27.911Z,5.60
2023-05-13T01:20:05.534Z,6.20
2023-05-13T01:23:41.057Z,7.20
2023-05-13T01:26:24.278Z,5.30
2023-05-13T01:29:06.656Z,8.50
2023-05-13T01:32:15.991Z,5.60
2023-05-13T01:35:21.576Z,6.50
2023-05-13T01:38:03.254Z,5.70
2023-05-13T01:40:49.902Z,5.20
2023-05-13T01:43:22.597Z,4.80
2023-05-13T01:46:24.436Z,4.70
2023-05-13T01:48:59.211Z,4.60
2023-05-13T01:51:38.776Z,4.70
2023-05-13T01:54:26.801Z,4.30
2023-05-13T01:57:11.435Z,5.20
2023-05-13T01:59:49.075Z,5.00
2023-05-13T02:05:41.538Z,5.00
2023-05-13T02:09:05.732Z,5.60
2023-05-13T02:11:45.852Z,5.00
2023-05-13T02:14:46.716Z,5.30
2023-05-13T02:17:23.252Z,5.70
2023-05-13T02:20:20.120Z,5.30
2023-05-13T02:22:53.074Z,5.00
2023-05-13T02:25:39.828Z,4.90
2023-05-13T02:28:15.000Z,4.70
2023-05-13T02:31:12.235Z,5.20
2023-05-13T02:34:26.569Z,5.10
2023-05-13T02:37:25.434Z,5.60
2023-05-13T02:40:09.967Z,5.10
2023-05-13T02:43:18.280Z,4.80
2023-05-13T02:46:03.334Z,4.60
2023-05-13T02:48:58.771Z,4.90
2023-05-13T02:54:20.875Z,4.20
2023-05-13T02:57:01.845Z,5.10
2023-05-13T03:00:08.727Z,4.90
2023-05-13T03:06:32.957Z,4.30
2023-05-13T03:12:36.071Z,3.40
2023-05-13T03:15:52.286Z,3.40
2023-05-13T03:18:37.931Z,3.60
2023-05-13T03:21:52.143Z,2.90
2023-05-13T03:24:29.150Z,3.30
2023-05-13T03:27:51.626Z,3.80
2023-05-13T03:30:57.684Z,3.10
2023-05-13T03:34:09.228Z,2.90
2023-05-13T03:36:52.623Z,3.30
2023-05-13T03:39:48.224Z,2.90
2023-05-13T03:43:18.696Z,3.10
2023-05-13T03:45:59.847Z,3.00
2023-05-13T03:48:31.285Z,3.10
2023-05-13T03:51:04.610Z,3.80
2023-05-13T03:53:38.772Z,3.20
2023-05-13T03:56:17.098Z,3.20
2023-05-13T03:58:49.567Z,2.80
2023-05-13T04:08:20.139Z,2.60
2023-05-13T04:11:21.405Z,2.70
2023-05-13T04:16:53.104Z,2.20
2023-05-13T04:22:25.692Z,2.60
2023-05-13T04:25:24.700Z,2.40
2023-05-13T04:28:57.212Z,2.70
2023-05-13T04:32:05.180Z,2.50
2023-05-13T04:46:46.728Z,2.80
2023-05-13T04:50:36.029Z,2.60
2023-05-13T04:53:58.430Z,2.50
2023-05-13T04:56:44.612Z,2.80
2023-05-13T05:00:02.292Z,2.00
2023-05-13T05:03:06.448Z,2.30
2023-05-13T05:06:17.185Z,2.80
2023-05-13T05:09:24.572Z,2.80
2023-05-13T05:19:57.638Z,1.90
2023-05-13T05:23:03.940Z,2.00
2023-05-13T05:26:20.484Z,2.40
2023-05-13T05:29:12.652Z,2.90
2023-05-13T05:31:59.821Z,2.20
2023-05-13T05:35:50.003Z,3.20
2023-05-13T05:38:45.050Z,2.90
2023-05-13T05:41:58.034Z,3.00
2023-05-13T05:44:48.618Z,2.70
2023-05-13T05:47:34.443Z,3.00
2023-05-13T05:50:39.027Z,2.20
2023-05-13T05:53:15.241Z,2.30
2023-05-13T05:56:58.165Z,2.30
2023-05-13T05:59:29.297Z,2.10
2023-05-13T06:05:26.458Z,2.10
2023-05-13T06:08:38.297Z,2.50
2023-05-13T06:11:19.835Z,2.30
2023-05-13T06:14:06.138Z,1.80
2023-05-13T06:17:00.459Z,1.70
2023-05-13T06:19:39.588Z,1.80
2023-05-13T06:22:44.343Z,1.60
2023-05-13T06:25:48.674Z,2.00
2023-05-13T06:29:30.341Z,1.90
2023-05-13T06:32:25.706Z,2.20
2023-05-13T06:35:14.948Z,1.90
2023-05-13T06:49:02.634Z,1.40
2023-05-13T06:51:58.800Z,1.40
2023-05-13T06:57:41.806Z,1.40
2023-05-13T07:01:12.487Z,1.30
2023-05-13T07:04:14.818Z,1.20
2023-05-13T07:07:30.411Z,1.60
2023-05-13T07:17:48.078Z,1.60
2023-05-13T07:21:24.542Z,2.00
2023-05-13T08:00:00.912Z,1.60
2023-05-13T08:26:52.030Z,1.70
2023-05-13T08:36:41.043Z,1.60
2023-05-13T08:39:38.801Z,1.70
2023-05-13T08:49:41.868Z,1.60
2023-05-13T08:53:16.971Z,1.50
2023-05-13T08:56:33.029Z,1.20
2023-05-13T08:59:18.628Z,1.90
2023-05-13T09:06:46.282Z,1.90
2023-05-13T09:17:32.567Z,1.50
2023-05-13T09:21:07.980Z,2.10
2023-05-13T09:24:24.898Z,1.60
2023-05-13T09:38:53.908Z,1.60
2023-05-13T09:45:47.151Z,1.50
2023-05-13T09:49:07.652Z,2.10
2023-05-13T10:06:04.953Z,1.70
2023-05-13T10:10:02.574Z,1.30
2023-05-13T10:29:09.644Z,1.30
2023-05-13T10:39:26.036Z,1.30
2023-05-13T11:03:37.044Z,1.10
2023-05-13T11:10:05.450Z,1.10
2023-05-13T11:13:20.579Z,1.30
2023-05-13T11:16:01.659Z,0.90
2023-05-13T11:21:49.968Z,1.20
2023-05-13T11:24:36.224Z,1.50
2023-05-13T20:43:34.543Z,4.20
2023-05-13T20:46:29.274Z,3.70
2023-05-13T20:49:22.900Z,4.40
2023-05-13T20:53:12.086Z,3.90
2023-05-13T20:56:16.642Z,4.00
2023-05-13T20:59:17.285Z,3.40
2023-05-13T21:10:52.981Z,3.40
2023-05-13T21:15:04.228Z,2.90
2023-05-13T21:21:08.387Z,2.50
2023-05-13T21:23:57.732Z,2.20
2023-05-13T21:30:53.190Z,2.20
2023-05-13T21:59:06.263Z,3.40
2023-05-13T22:02:21.640Z,3.80
2023-05-13T22:05:44.619Z,3.80
2023-05-13T22:09:19.130Z,3.40
2023-05-13T22:12:12.704Z,3.20
2023-05-13T22:15:07.226Z,1.80
2023-05-13T22:21:19.622Z,1.80
2023-05-13T22:25:19.279Z,2.50
2023-05-13T22:35:02.656Z,2.20
2023-05-13T22:38:00.855Z,2.40
2023-05-13T22:41:38.151Z,1.80
2023-05-13T22:45:23.239Z,2.10
2023-05-13T22:48:45.205Z,2.00
2023-05-13T22:55:22.119Z,2.30
2023-05-13T23:01:54.365Z,2.20
2023-05-13T23:04:59.847Z,1.90
2023-05-13T23:14:25.587Z,1.50
2023-05-13T23:17:14.546Z,1.80
2023-05-13T23:24:47.115Z,2.30
2023-05-13T23:27:57.804Z,1.70
2023-05-13T23:31:49.986Z,1.90
2023-05-13T23:41:32.955Z,2.00
2023-05-13T23:44:53.748Z,1.70
2023-05-13T23:52:02.455Z,1.70
2023-05-13T23:58:13.101Z,1.50
